JST348 YPAD-YSSY
Flight info
| Callsign | JST348 |
|---|---|
| Flight time | N/A |
| Altitude | 37000 |
| Route | AVDEN H247 CULIN Y59 RIVET |
| Aircraft | A320/M-SDE3FGHIRWYZ/LB1 |
Departure
| Time | 2025-09-10 07:18 |
|---|---|
| Airport | Adelaide International Airport (YPAD) |
Arrival
| Time | N/A |
|---|---|
| Airport | Sydney Kingsford Smith International Airport (YSSY) |
| Time | Latitude | Longitude | Altitude | Speed | Heading |
|---|---|---|---|---|---|
| 2025-09-10 06:18 | -34.93829 | 138.53992 | 30 ft | 0 kts | 320° |
| 2025-09-10 06:47 | -34.93830 | 138.53993 | 30 ft | 1 kts | 320° |
| 2025-09-10 06:47 | -34.93859 | 138.54021 | 27 ft | 3 kts | 322° |
| 2025-09-10 06:47 | -34.93875 | 138.54036 | 31 ft | 3 kts | 323° |
| 2025-09-10 06:48 | -34.93896 | 138.54054 | 29 ft | 0 kts | 324° |
| 2025-09-10 06:49 | -34.93903 | 138.54060 | 28 ft | 1 kts | 9° |
| 2025-09-10 06:51 | -34.93889 | 138.54074 | 27 ft | 4 kts | 50° |
| 2025-09-10 06:52 | -34.93934 | 138.54179 | 27 ft | 8 kts | 139° |
| 2025-09-10 06:52 | -34.94005 | 138.54252 | 28 ft | 0 kts | 140° |
| 2025-09-10 06:52 | -34.94001 | 138.54248 | 30 ft | 1 kts | 139° |
| 2025-09-10 06:53 | -34.93997 | 138.54244 | 26 ft | 0 kts | 139° |
| 2025-09-10 07:02 | -34.93981 | 138.54226 | 28 ft | 7 kts | 138° |
| 2025-09-10 07:03 | -34.93977 | 138.54111 | 28 ft | 0 kts | 49° |
| 2025-09-10 07:15 | -34.93976 | 138.54112 | 26 ft | 2 kts | 49° |
| 2025-09-10 07:15 | -34.93999 | 138.54244 | 29 ft | 13 kts | 138° |
| 2025-09-10 07:16 | -34.94088 | 138.54291 | 27 ft | 0 kts | 229° |
| 2025-09-10 07:17 | -34.94096 | 138.54279 | 28 ft | 9 kts | 229° |
| 2025-09-10 07:17 | -34.94840 | 138.53200 | 30 ft | 149 kts | 229° |
| 2025-09-10 07:18 | -34.96196 | 138.51225 | 1631 ft | 152 kts | 227° |
| 2025-09-10 07:18 | -34.97702 | 138.49037 | 2275 ft | 191 kts | 227° |
| 2025-09-10 07:19 | -34.98595 | 138.47737 | 2622 ft | 211 kts | 227° |
| 2025-09-10 07:19 | -35.01235 | 138.45860 | 3757 ft | 239 kts | 181° |
| 2025-09-10 07:19 | -35.02841 | 138.46440 | 4637 ft | 250 kts | 149° |
| 2025-09-10 07:20 | -35.04937 | 138.49995 | 6389 ft | 265 kts | 126° |
| 2025-09-10 07:21 | -35.08734 | 138.57987 | 9612 ft | 279 kts | 126° |
| 2025-09-10 07:21 | -35.09846 | 138.62652 | 11028 ft | 302 kts | 94° |
| 2025-09-10 07:22 | -35.09538 | 138.68131 | 11509 ft | 346 kts | 90° |
| 2025-09-10 07:22 | -35.09342 | 138.71141 | 11763 ft | 363 kts | 89° |
| 2025-09-10 07:23 | -35.08918 | 138.77370 | 12955 ft | 372 kts | 89° |
| 2025-09-10 07:23 | -35.08493 | 138.83706 | 14197 ft | 378 kts | 89° |
| 2025-09-10 07:24 | -35.08071 | 138.90146 | 15359 ft | 382 kts | 89° |
| 2025-09-10 07:24 | -35.07644 | 138.96655 | 16473 ft | 387 kts | 89° |
| 2025-09-10 07:25 | -35.06990 | 139.06573 | 18163 ft | 394 kts | 89° |
| 2025-09-10 07:25 | -35.06538 | 139.13281 | 19207 ft | 398 kts | 88° |
| 2025-09-10 07:26 | -35.06079 | 139.20056 | 20272 ft | 402 kts | 88° |
| 2025-09-10 07:26 | -35.05846 | 139.23462 | 20773 ft | 404 kts | 89° |
| 2025-09-10 07:27 | -35.05373 | 139.30321 | 21719 ft | 407 kts | 89° |
| 2025-09-10 07:27 | -35.04895 | 139.37238 | 22640 ft | 411 kts | 88° |
| 2025-09-10 07:28 | -35.04414 | 139.44212 | 23530 ft | 414 kts | 88° |
| 2025-09-10 07:28 | -35.03914 | 139.51252 | 24242 ft | 419 kts | 88° |
| 2025-09-10 07:29 | -35.03161 | 139.61966 | 25205 ft | 426 kts | 88° |
| 2025-09-10 07:31 | -35.01274 | 139.87849 | 27327 ft | 447 kts | 87° |
| 2025-09-10 07:32 | -34.99285 | 140.14519 | 29975 ft | 455 kts | 86° |
| 2025-09-10 07:35 | -34.97833 | 140.49430 | 32863 ft | 463 kts | 91° |
| 2025-09-10 07:37 | -34.98060 | 140.83939 | 35236 ft | 473 kts | 91° |
| 2025-09-10 07:38 | -34.98161 | 141.08052 | 36575 ft | 476 kts | 90° |